Terminal Aerodrome Forecast
Issued by NWS

Home | Current Version | Previous Version | Text Only | Print | Product List | Glossary Off
Versions: 1 2 3 4 5 6 7 8 9 10 11 12 13 14 15 16 17 18 19 20 21 22 23 24 25 26 27 28 29 30 31 32 33 34 35 36 37 38 39 40 41 42 43 44 45 46

000
FTUS43 KGRB 170520
TAFRHI
TAF
KRHI 170520Z 1706/1806 11010KT P6SM -SHRA SCT015 OVC025
      TEMPO 1707/1708 3SM -SHRA BR SCT007 OVC015
     FM170800 15008KT 5SM -SHRA BR BKN007 OVC012 WS015/15040KT
      TEMPO 1708/1710 2SM SHRA BR OVC007
     FM171600 20007KT 4SM -SHRA BR OVC008 PROB30 1716/1718 3SM -TSRA
      BKN015CB
     FM172200 25007G15KT P6SM -SHRA BKN008=

USA.gov is the U.S. government's official web portal to all federal, state and local government web resources and services.